SWA4028 KROC-KBWI
Flight info
| Callsign | SWA4028 |
|---|---|
| Flight time | 0h 45m |
| Altitude | 26000 |
| Route | BURST DDUBS IZZEE TRISH4 |
| Aircraft | B738/M-SADE2E3GIJ4RWZ/LB1D1 |
Departure
| Time | 2026-04-23 00:20 |
|---|---|
| Airport | Frederick Douglass Greater Rochester International Airport (KROC) |
Arrival
| Time | 2026-04-23 01:06 |
|---|---|
| Airport | Baltimore/Washington International Thurgood Marshall Airport (KBWI) |
| Time | Latitude | Longitude | Altitude | Speed | Heading |
|---|---|---|---|---|---|
| 2026-04-22 23:43 | 43.12662 | -77.66596 | 550 ft | 0 kts | 301° |
| 2026-04-23 00:10 | 43.12661 | -77.66594 | 549 ft | 2 kts | 302° |
| 2026-04-23 00:10 | 43.12648 | -77.66564 | 555 ft | 4 kts | 296° |
| 2026-04-23 00:11 | 43.12641 | -77.66532 | 549 ft | 4 kts | 258° |
| 2026-04-23 00:11 | 43.12646 | -77.66517 | 560 ft | 1 kts | 220° |
| 2026-04-23 00:13 | 43.12640 | -77.66523 | 560 ft | 2 kts | 216° |
| 2026-04-23 00:13 | 43.12617 | -77.66534 | 551 ft | 5 kts | 195° |
| 2026-04-23 00:13 | 43.12579 | -77.66549 | 549 ft | 7 kts | 195° |
| 2026-04-23 00:14 | 43.12529 | -77.66586 | 549 ft | 10 kts | 239° |
| 2026-04-23 00:14 | 43.12519 | -77.66679 | 549 ft | 10 kts | 268° |
| 2026-04-23 00:14 | 43.12517 | -77.66771 | 549 ft | 10 kts | 268° |
| 2026-04-23 00:14 | 43.12514 | -77.66861 | 549 ft | 9 kts | 268° |
| 2026-04-23 00:15 | 43.12511 | -77.66948 | 549 ft | 9 kts | 267° |
| 2026-04-23 00:15 | 43.12508 | -77.67033 | 549 ft | 9 kts | 265° |
| 2026-04-23 00:15 | 43.12472 | -77.67096 | 551 ft | 9 kts | 212° |
| 2026-04-23 00:15 | 43.12417 | -77.67142 | 549 ft | 11 kts | 211° |
| 2026-04-23 00:16 | 43.12317 | -77.67228 | 551 ft | 23 kts | 212° |
| 2026-04-23 00:16 | 43.12162 | -77.67358 | 555 ft | 26 kts | 211° |
| 2026-04-23 00:16 | 43.12011 | -77.67482 | 549 ft | 24 kts | 211° |
| 2026-04-23 00:16 | 43.11872 | -77.67599 | 549 ft | 23 kts | 212° |
| 2026-04-23 00:17 | 43.11739 | -77.67712 | 553 ft | 22 kts | 211° |
| 2026-04-23 00:17 | 43.11604 | -77.67825 | 549 ft | 24 kts | 211° |
| 2026-04-23 00:17 | 43.11451 | -77.67953 | 549 ft | 26 kts | 212° |
| 2026-04-23 00:17 | 43.11304 | -77.68078 | 548 ft | 24 kts | 212° |
| 2026-04-23 00:18 | 43.11166 | -77.68193 | 549 ft | 23 kts | 211° |
| 2026-04-23 00:18 | 43.11033 | -77.68305 | 549 ft | 22 kts | 211° |
| 2026-04-23 00:18 | 43.10904 | -77.68413 | 551 ft | 21 kts | 212° |
| 2026-04-23 00:18 | 43.10778 | -77.68518 | 554 ft | 21 kts | 211° |
| 2026-04-23 00:19 | 43.10675 | -77.68607 | 552 ft | 11 kts | 218° |
| 2026-04-23 00:19 | 43.10661 | -77.68682 | 548 ft | 8 kts | 289° |
| 2026-04-23 00:19 | 43.10693 | -77.68746 | 549 ft | 8 kts | 329° |
| 2026-04-23 00:19 | 43.10763 | -77.68709 | 555 ft | 27 kts | 31° |
| 2026-04-23 00:20 | 43.11142 | -77.68391 | 552 ft | 99 kts | 32° |
| 2026-04-23 00:20 | 43.11910 | -77.67753 | 567 ft | 155 kts | 31° |
| 2026-04-23 00:20 | 43.12879 | -77.66945 | 1110 ft | 166 kts | 31° |
| 2026-04-23 00:20 | 43.13827 | -77.66074 | 2019 ft | 166 kts | 32° |
| 2026-04-23 00:21 | 43.14666 | -77.64865 | 2337 ft | 198 kts | 64° |
| 2026-04-23 00:21 | 43.14749 | -77.62839 | 2588 ft | 231 kts | 106° |
| 2026-04-23 00:21 | 43.13753 | -77.61022 | 2904 ft | 251 kts | 147° |
| 2026-04-23 00:21 | 43.12047 | -77.60305 | 3181 ft | 268 kts | 185° |
| 2026-04-23 00:22 | 43.10264 | -77.61007 | 3932 ft | 267 kts | 208° |
| 2026-04-23 00:22 | 43.08565 | -77.62028 | 4908 ft | 267 kts | 208° |
| 2026-04-23 00:22 | 43.06868 | -77.63070 | 5794 ft | 268 kts | 209° |
| 2026-04-23 00:22 | 43.05159 | -77.64039 | 6591 ft | 273 kts | 204° |
| 2026-04-23 00:23 | 43.03320 | -77.64803 | 7363 ft | 279 kts | 201° |
| 2026-04-23 00:23 | 43.01422 | -77.65515 | 8092 ft | 286 kts | 200° |
| 2026-04-23 00:23 | 42.99485 | -77.66231 | 8853 ft | 291 kts | 200° |
| 2026-04-23 00:23 | 42.97515 | -77.66968 | 9640 ft | 296 kts | 200° |
| 2026-04-23 00:24 | 42.95507 | -77.67728 | 10347 ft | 305 kts | 200° |
| 2026-04-23 00:24 | 42.93380 | -77.68547 | 10558 ft | 330 kts | 200° |
| 2026-04-23 00:24 | 42.91091 | -77.69437 | 10766 ft | 353 kts | 200° |
| 2026-04-23 00:24 | 42.88679 | -77.70374 | 11236 ft | 366 kts | 200° |
| 2026-04-23 00:25 | 42.86212 | -77.71330 | 11938 ft | 371 kts | 200° |
| 2026-04-23 00:25 | 42.83718 | -77.72295 | 12703 ft | 375 kts | 201° |
| 2026-04-23 00:25 | 42.81190 | -77.73274 | 13469 ft | 380 kts | 201° |
| 2026-04-23 00:25 | 42.78634 | -77.74266 | 14192 ft | 385 kts | 201° |
| 2026-04-23 00:26 | 42.76039 | -77.75273 | 14880 ft | 390 kts | 201° |
| 2026-04-23 00:26 | 42.73410 | -77.76294 | 15564 ft | 396 kts | 201° |
| 2026-04-23 00:26 | 42.70742 | -77.77330 | 16256 ft | 401 kts | 201° |
| 2026-04-23 00:26 | 42.68037 | -77.78379 | 16970 ft | 406 kts | 201° |
| 2026-04-23 00:27 | 42.65301 | -77.79440 | 17659 ft | 411 kts | 201° |
| 2026-04-23 00:27 | 42.62535 | -77.80509 | 18328 ft | 417 kts | 201° |
| 2026-04-23 00:27 | 42.59727 | -77.81595 | 18916 ft | 421 kts | 201° |
| 2026-04-23 00:27 | 42.56896 | -77.82689 | 19553 ft | 424 kts | 201° |
| 2026-04-23 00:28 | 42.54039 | -77.83760 | 20183 ft | 429 kts | 198° |
| 2026-04-23 00:28 | 42.51055 | -77.84377 | 20778 ft | 439 kts | 188° |
| 2026-04-23 00:28 | 42.47966 | -77.84325 | 21385 ft | 447 kts | 180° |
| 2026-04-23 00:28 | 42.44849 | -77.84041 | 21978 ft | 451 kts | 179° |
| 2026-04-23 00:29 | 42.41752 | -77.83721 | 22572 ft | 454 kts | 179° |
| 2026-04-23 00:29 | 42.38552 | -77.83389 | 23167 ft | 457 kts | 179° |
| 2026-04-23 00:29 | 42.35368 | -77.83072 | 23722 ft | 460 kts | 180° |
| 2026-04-23 00:29 | 42.32205 | -77.82775 | 24195 ft | 463 kts | 180° |
| 2026-04-23 00:30 | 42.28977 | -77.82485 | 24629 ft | 467 kts | 180° |
| 2026-04-23 00:30 | 42.25718 | -77.82201 | 24995 ft | 473 kts | 180° |
| 2026-04-23 00:30 | 42.22429 | -77.81918 | 25532 ft | 472 kts | 180° |
| 2026-04-23 00:30 | 42.19149 | -77.81636 | 26000 ft | 475 kts | 180° |
| 2026-04-23 00:31 | 42.15845 | -77.81353 | 26035 ft | 477 kts | 180° |
| 2026-04-23 00:31 | 42.12516 | -77.81068 | 26049 ft | 481 kts | 180° |
| 2026-04-23 00:31 | 42.09172 | -77.80782 | 26043 ft | 481 kts | 180° |
| 2026-04-23 00:31 | 42.05838 | -77.80495 | 26038 ft | 480 kts | 180° |
| 2026-04-23 00:32 | 42.02510 | -77.80208 | 26034 ft | 479 kts | 180° |
| 2026-04-23 00:32 | 41.99190 | -77.79923 | 26039 ft | 478 kts | 180° |
| 2026-04-23 00:32 | 41.95868 | -77.79638 | 26037 ft | 478 kts | 180° |
| 2026-04-23 00:32 | 41.92551 | -77.79354 | 26037 ft | 478 kts | 180° |
| 2026-04-23 00:33 | 41.89229 | -77.79071 | 26040 ft | 478 kts | 180° |
| 2026-04-23 00:33 | 41.85914 | -77.78789 | 26041 ft | 478 kts | 180° |
| 2026-04-23 00:33 | 41.82593 | -77.78506 | 26040 ft | 479 kts | 180° |
| 2026-04-23 00:33 | 41.79261 | -77.78223 | 26021 ft | 479 kts | 180° |
| 2026-04-23 00:34 | 41.75937 | -77.77940 | 26027 ft | 479 kts | 180° |
| 2026-04-23 00:34 | 41.72612 | -77.77657 | 26020 ft | 479 kts | 180° |
| 2026-04-23 00:34 | 41.69292 | -77.77375 | 26019 ft | 479 kts | 180° |
| 2026-04-23 00:34 | 41.65968 | -77.77093 | 26022 ft | 479 kts | 180° |
| 2026-04-23 00:35 | 41.62643 | -77.76812 | 26021 ft | 479 kts | 180° |
| 2026-04-23 00:35 | 41.59315 | -77.76530 | 26007 ft | 479 kts | 180° |
| 2026-04-23 00:35 | 41.55997 | -77.76250 | 26011 ft | 478 kts | 180° |
| 2026-04-23 00:35 | 41.52675 | -77.75969 | 26005 ft | 478 kts | 180° |
| 2026-04-23 00:36 | 41.49361 | -77.75644 | 26009 ft | 478 kts | 176° |
| 2026-04-23 00:36 | 41.46084 | -77.74831 | 25999 ft | 481 kts | 166° |
| 2026-04-23 00:36 | 41.42887 | -77.73504 | 26001 ft | 482 kts | 163° |
| 2026-04-23 00:36 | 41.39697 | -77.72103 | 26007 ft | 482 kts | 163° |
| 2026-04-23 00:37 | 41.36510 | -77.70696 | 26004 ft | 486 kts | 163° |
| 2026-04-23 00:37 | 41.33266 | -77.69283 | 26014 ft | 496 kts | 163° |
| 2026-04-23 00:37 | 41.29946 | -77.67860 | 26008 ft | 505 kts | 163° |
| 2026-04-23 00:37 | 41.26569 | -77.66431 | 25994 ft | 513 kts | 164° |
| 2026-04-23 00:38 | 41.23141 | -77.64991 | 25994 ft | 519 kts | 164° |
| 2026-04-23 00:38 | 41.19700 | -77.63550 | 25989 ft | 519 kts | 164° |
| 2026-04-23 00:38 | 41.16267 | -77.62113 | 25971 ft | 515 kts | 164° |
| 2026-04-23 00:38 | 41.12857 | -77.60686 | 25977 ft | 513 kts | 164° |
| 2026-04-23 00:39 | 41.09448 | -77.59260 | 25983 ft | 515 kts | 164° |
| 2026-04-23 00:39 | 41.07182 | -77.58314 | 25971 ft | 516 kts | 164° |
| 2026-04-23 00:39 | 41.03752 | -77.56882 | 25964 ft | 517 kts | 164° |
| 2026-04-23 00:39 | 41.00333 | -77.55455 | 25862 ft | 514 kts | 164° |
| 2026-04-23 00:40 | 40.96932 | -77.54038 | 25761 ft | 512 kts | 164° |
| 2026-04-23 00:40 | 40.93555 | -77.52541 | 25649 ft | 511 kts | 158° |
| 2026-04-23 00:40 | 40.90383 | -77.50436 | 25556 ft | 510 kts | 151° |
| 2026-04-23 00:40 | 40.87315 | -77.48083 | 25462 ft | 509 kts | 149° |
| 2026-04-23 00:41 | 40.84286 | -77.45675 | 25363 ft | 508 kts | 149° |
| 2026-04-23 00:41 | 40.81256 | -77.43271 | 25265 ft | 507 kts | 149° |
| 2026-04-23 00:41 | 40.78235 | -77.40916 | 25074 ft | 502 kts | 149° |
| 2026-04-23 00:41 | 40.75218 | -77.38608 | 24788 ft | 500 kts | 150° |
| 2026-04-23 00:42 | 40.72208 | -77.36336 | 24486 ft | 498 kts | 150° |
| 2026-04-23 00:42 | 40.69203 | -77.34087 | 24192 ft | 495 kts | 150° |
| 2026-04-23 00:42 | 40.66213 | -77.31857 | 23893 ft | 493 kts | 150° |
| 2026-04-23 00:42 | 40.63250 | -77.29649 | 23584 ft | 484 kts | 150° |
| 2026-04-23 00:43 | 40.60343 | -77.27482 | 23323 ft | 478 kts | 150° |
| 2026-04-23 00:43 | 40.57446 | -77.25324 | 23047 ft | 478 kts | 150° |
| 2026-04-23 00:43 | 40.54556 | -77.23171 | 22766 ft | 478 kts | 150° |
| 2026-04-23 00:43 | 40.51666 | -77.21018 | 22273 ft | 475 kts | 150° |
| 2026-04-23 00:44 | 40.48806 | -77.18890 | 21768 ft | 471 kts | 150° |
| 2026-04-23 00:44 | 40.45966 | -77.16779 | 21227 ft | 468 kts | 150° |
| 2026-04-23 00:44 | 40.43143 | -77.14683 | 20700 ft | 465 kts | 150° |
| 2026-04-23 00:44 | 40.40334 | -77.12599 | 20173 ft | 463 kts | 151° |
| 2026-04-23 00:45 | 40.37538 | -77.10527 | 19646 ft | 461 kts | 151° |
| 2026-04-23 00:45 | 40.34752 | -77.08463 | 19133 ft | 459 kts | 151° |
| 2026-04-23 00:45 | 40.31979 | -77.06412 | 18588 ft | 458 kts | 151° |
| 2026-04-23 00:45 | 40.29216 | -77.04346 | 18008 ft | 456 kts | 148° |
| 2026-04-23 00:46 | 40.26782 | -77.01740 | 17443 ft | 450 kts | 134° |
| 2026-04-23 00:46 | 40.24607 | -76.98835 | 16915 ft | 444 kts | 134° |
| 2026-04-23 00:46 | 40.22454 | -76.95967 | 16417 ft | 440 kts | 134° |
| 2026-04-23 00:46 | 40.20304 | -76.93131 | 15912 ft | 437 kts | 134° |
| 2026-04-23 00:47 | 40.18156 | -76.90328 | 15403 ft | 435 kts | 134° |
| 2026-04-23 00:47 | 40.16016 | -76.87556 | 14900 ft | 432 kts | 135° |
| 2026-04-23 00:47 | 40.13918 | -76.84851 | 14382 ft | 427 kts | 135° |
| 2026-04-23 00:47 | 40.11791 | -76.82115 | 13863 ft | 421 kts | 135° |
| 2026-04-23 00:48 | 40.09741 | -76.79481 | 13321 ft | 415 kts | 135° |
| 2026-04-23 00:48 | 40.07715 | -76.76880 | 12808 ft | 402 kts | 135° |
| 2026-04-23 00:48 | 40.05748 | -76.74355 | 12319 ft | 391 kts | 135° |
| 2026-04-23 00:48 | 40.03838 | -76.71905 | 11854 ft | 380 kts | 136° |
| 2026-04-23 00:49 | 40.01976 | -76.69519 | 11408 ft | 370 kts | 136° |
| 2026-04-23 00:49 | 40.00168 | -76.67203 | 10985 ft | 359 kts | 136° |
| 2026-04-23 00:49 | 39.98410 | -76.64954 | 10664 ft | 347 kts | 136° |
| 2026-04-23 00:49 | 39.96725 | -76.62798 | 10517 ft | 331 kts | 136° |
| 2026-04-23 00:50 | 39.95120 | -76.60745 | 10371 ft | 317 kts | 137° |
| 2026-04-23 00:50 | 39.93567 | -76.58762 | 10245 ft | 309 kts | 137° |
| 2026-04-23 00:50 | 39.92043 | -76.56819 | 10126 ft | 305 kts | 137° |
| 2026-04-23 00:50 | 39.90487 | -76.54953 | 10012 ft | 304 kts | 147° |
| 2026-04-23 00:51 | 39.88590 | -76.53810 | 9928 ft | 301 kts | 165° |
| 2026-04-23 00:51 | 39.86587 | -76.52956 | 9822 ft | 303 kts | 166° |
| 2026-04-23 00:51 | 39.84588 | -76.52119 | 9703 ft | 301 kts | 166° |
| 2026-04-23 00:51 | 39.82600 | -76.51282 | 9591 ft | 300 kts | 166° |
| 2026-04-23 00:52 | 39.80626 | -76.50443 | 9492 ft | 298 kts | 165° |
| 2026-04-23 00:52 | 39.78663 | -76.49602 | 9398 ft | 296 kts | 165° |
| 2026-04-23 00:52 | 39.76704 | -76.48759 | 9298 ft | 297 kts | 165° |
| 2026-04-23 00:52 | 39.74743 | -76.47914 | 9204 ft | 297 kts | 165° |
| 2026-04-23 00:53 | 39.72776 | -76.47065 | 9101 ft | 298 kts | 165° |
| 2026-04-23 00:53 | 39.70809 | -76.46216 | 8992 ft | 298 kts | 165° |
| 2026-04-23 00:53 | 39.68834 | -76.45364 | 8826 ft | 300 kts | 165° |
| 2026-04-23 00:53 | 39.66852 | -76.44507 | 8658 ft | 300 kts | 165° |
| 2026-04-23 00:54 | 39.64869 | -76.43650 | 8505 ft | 300 kts | 165° |
| 2026-04-23 00:54 | 39.62892 | -76.42796 | 8340 ft | 299 kts | 165° |
| 2026-04-23 00:54 | 39.60927 | -76.41947 | 8191 ft | 297 kts | 165° |
| 2026-04-23 00:54 | 39.58969 | -76.41101 | 8032 ft | 297 kts | 165° |
| 2026-04-23 00:55 | 39.57009 | -76.40257 | 7867 ft | 297 kts | 165° |
| 2026-04-23 00:55 | 39.55053 | -76.39417 | 7690 ft | 294 kts | 165° |
| 2026-04-23 00:55 | 39.53113 | -76.38785 | 7488 ft | 281 kts | 182° |
| 2026-04-23 00:55 | 39.51266 | -76.39196 | 7351 ft | 262 kts | 210° |
| 2026-04-23 00:56 | 39.49791 | -76.40464 | 7236 ft | 251 kts | 229° |
| 2026-04-23 00:56 | 39.48744 | -76.42233 | 7117 ft | 247 kts | 248° |
| 2026-04-23 00:56 | 39.48030 | -76.44253 | 6982 ft | 247 kts | 251° |
| 2026-04-23 00:56 | 39.47357 | -76.46300 | 6857 ft | 247 kts | 251° |
| 2026-04-23 00:57 | 39.46687 | -76.48354 | 6711 ft | 248 kts | 251° |
| 2026-04-23 00:57 | 39.46027 | -76.50388 | 6591 ft | 248 kts | 251° |
| 2026-04-23 00:57 | 39.45342 | -76.52476 | 6453 ft | 250 kts | 251° |
| 2026-04-23 00:57 | 39.44670 | -76.54518 | 6297 ft | 249 kts | 251° |
| 2026-04-23 00:58 | 39.43982 | -76.56600 | 6163 ft | 248 kts | 251° |
| 2026-04-23 00:58 | 39.43304 | -76.58644 | 6028 ft | 247 kts | 251° |
| 2026-04-23 00:58 | 39.42637 | -76.60652 | 5891 ft | 245 kts | 251° |
| 2026-04-23 00:58 | 39.41965 | -76.62670 | 5767 ft | 243 kts | 250° |
| 2026-04-23 00:59 | 39.41288 | -76.64706 | 5633 ft | 243 kts | 250° |
| 2026-04-23 00:59 | 39.40620 | -76.66714 | 5502 ft | 243 kts | 250° |
| 2026-04-23 00:59 | 39.39961 | -76.68688 | 5371 ft | 242 kts | 250° |
| 2026-04-23 00:59 | 39.39297 | -76.70679 | 5236 ft | 241 kts | 250° |
| 2026-04-23 01:00 | 39.38610 | -76.72690 | 5115 ft | 242 kts | 247° |
| 2026-04-23 01:00 | 39.37806 | -76.74589 | 4980 ft | 246 kts | 244° |
| 2026-04-23 01:00 | 39.36957 | -76.76508 | 4837 ft | 246 kts | 244° |
| 2026-04-23 01:00 | 39.36115 | -76.78430 | 4723 ft | 246 kts | 244° |
| 2026-04-23 01:01 | 39.35269 | -76.80366 | 4567 ft | 248 kts | 244° |
| 2026-04-23 01:01 | 39.34402 | -76.82262 | 4417 ft | 242 kts | 235° |
| 2026-04-23 01:01 | 39.33115 | -76.83632 | 4272 ft | 240 kts | 213° |
| 2026-04-23 01:01 | 39.31512 | -76.84135 | 4089 ft | 242 kts | 182° |
| 2026-04-23 01:02 | 39.29849 | -76.83958 | 3863 ft | 238 kts | 179° |
| 2026-04-23 01:02 | 39.28216 | -76.83772 | 3654 ft | 233 kts | 179° |
| 2026-04-23 01:02 | 39.26626 | -76.83592 | 3338 ft | 227 kts | 179° |
| 2026-04-23 01:02 | 39.25075 | -76.83420 | 3025 ft | 220 kts | 179° |
| 2026-04-23 01:03 | 39.23578 | -76.83257 | 2745 ft | 211 kts | 178° |
| 2026-04-23 01:03 | 39.22156 | -76.82967 | 2443 ft | 206 kts | 164° |
| 2026-04-23 01:03 | 39.20908 | -76.82144 | 2216 ft | 199 kts | 142° |
| 2026-04-23 01:03 | 39.19926 | -76.80943 | 2048 ft | 191 kts | 139° |
| 2026-04-23 01:04 | 39.19099 | -76.79636 | 1843 ft | 185 kts | 130° |
| 2026-04-23 01:04 | 39.18438 | -76.78251 | 1657 ft | 179 kts | 122° |
| 2026-04-23 01:04 | 39.17847 | -76.75262 | 1141 ft | 165 kts | 98° |
| 2026-04-23 01:05 | 39.17758 | -76.73852 | 932 ft | 153 kts | 96° |
| 2026-04-23 01:05 | 39.17686 | -76.72507 | 733 ft | 149 kts | 96° |
| 2026-04-23 01:05 | 39.17606 | -76.71181 | 525 ft | 146 kts | 94° |
| 2026-04-23 01:05 | 39.17531 | -76.69874 | 327 ft | 147 kts | 94° |
| 2026-04-23 01:06 | 39.17454 | -76.68557 | 170 ft | 146 kts | 94° |
| 2026-04-23 01:06 | 39.17388 | -76.67421 | 150 ft | 98 kts | 94° |
| 2026-04-23 01:06 | 39.17353 | -76.66821 | 152 ft | 34 kts | 94° |
| 2026-04-23 01:06 | 39.17347 | -76.66721 | 151 ft | 1 kts | 94° |
| 2026-04-23 01:07 | 39.17346 | -76.66639 | 151 ft | 12 kts | 83° |
| 2026-04-23 01:07 | 39.17396 | -76.66590 | 152 ft | 10 kts | 3° |
| 2026-04-23 01:07 | 39.17451 | -76.66621 | 153 ft | 10 kts | 287° |
| 2026-04-23 01:07 | 39.17455 | -76.66706 | 153 ft | 9 kts | 274° |
| 2026-04-23 01:08 | 39.17463 | -76.66799 | 154 ft | 11 kts | 288° |
| 2026-04-23 01:08 | 39.17521 | -76.66858 | 155 ft | 11 kts | 316° |
| 2026-04-23 01:08 | 39.17540 | -76.66947 | 156 ft | 10 kts | 284° |
| 2026-04-23 01:08 | 39.17576 | -76.67025 | 155 ft | 10 kts | 316° |
| 2026-04-23 01:09 | 39.17641 | -76.67088 | 155 ft | 13 kts | 324° |
| 2026-04-23 01:09 | 39.17726 | -76.67166 | 155 ft | 16 kts | 324° |
| 2026-04-23 01:09 | 39.17789 | -76.67203 | 155 ft | 6 kts | 37° |
| 2026-04-23 01:09 | 39.17816 | -76.67156 | 155 ft | 6 kts | 57° |
| 2026-04-23 01:10 | 39.17832 | -76.67125 | 155 ft | 0 kts | 54° |